createdAt,value
2022-08-03T00:01:38.349Z,1.65
2022-08-03T00:04:05.523Z,1.52
2022-08-03T00:06:36.780Z,1.70
2022-08-03T00:09:04.610Z,1.50
2022-08-03T00:11:31.039Z,1.73
2022-08-03T00:13:57.433Z,1.70
2022-08-03T00:16:25.180Z,1.65
2022-08-03T00:18:51.743Z,1.83
2022-08-03T00:21:18.164Z,1.50
2022-08-03T00:23:52.580Z,1.90
2022-08-03T00:26:19.730Z,1.73
2022-08-03T00:28:46.170Z,1.80
2022-08-03T00:31:13.425Z,1.75
2022-08-03T00:33:59.221Z,1.83
2022-08-03T00:36:37.062Z,1.80
2022-08-03T00:39:03.973Z,2.10
2022-08-03T00:41:30.361Z,1.90
2022-08-03T00:43:56.783Z,2.20
2022-08-03T00:46:23.143Z,2.10
2022-08-03T00:51:15.928Z,2.40
2022-08-03T00:53:42.835Z,2.30
2022-08-03T00:56:12.078Z,2.20
2022-08-03T00:58:38.446Z,2.30
2022-08-03T01:03:33.704Z,2.33
2022-08-03T01:06:04.952Z,2.20
2022-08-03T01:08:37.061Z,2.75
2022-08-03T01:11:09.242Z,2.50
2022-08-03T01:14:03.800Z,2.10
2022-08-03T01:16:45.212Z,2.30
2022-08-03T01:19:14.656Z,2.30
2022-08-03T01:21:53.337Z,2.28
2022-08-03T01:24:32.036Z,2.45
2022-08-03T01:27:17.797Z,2.58
2022-08-03T01:32:53.448Z,2.30
2022-08-03T01:35:08.960Z,2.47
2022-08-03T01:37:38.858Z,2.97
2022-08-03T01:40:06.544Z,2.10
2022-08-03T01:42:33.736Z,2.55
2022-08-03T01:45:00.903Z,2.22
2022-08-03T01:47:28.846Z,2.78
2022-08-03T01:49:56.457Z,2.78
2022-08-03T01:52:23.850Z,2.50
2022-08-03T01:54:52.070Z,2.72
2022-08-03T01:57:19.298Z,2.90
2022-08-03T01:59:46.849Z,3.08
2022-08-03T02:02:15.282Z,2.80
2022-08-03T02:05:01.002Z,3.15
2022-08-03T02:07:29.009Z,3.10
2022-08-03T02:09:55.848Z,3.20
2022-08-03T02:12:23.886Z,3.33
2022-08-03T02:14:50.848Z,3.00
2022-08-03T02:17:39.796Z,3.08
2022-08-03T02:20:08.806Z,2.80
2022-08-03T02:22:35.927Z,3.00
2022-08-03T02:25:02.502Z,2.95
2022-08-03T02:27:29.488Z,2.80
2022-08-03T02:30:02.554Z,2.78
2022-08-03T02:32:30.756Z,3.00
2022-08-03T02:34:58.247Z,2.70
2022-08-03T02:37:26.713Z,3.15
2022-08-03T02:39:54.822Z,2.72
2022-08-03T02:42:22.216Z,2.92
2022-08-03T02:44:49.890Z,2.90
2022-08-03T02:47:17.616Z,2.75
2022-08-03T02:49:50.494Z,3.28
2022-08-03T02:52:19.862Z,2.78
2022-08-03T02:54:47.222Z,3.03
2022-08-03T02:57:14.217Z,2.92
2022-08-03T02:59:41.624Z,2.80
2022-08-03T03:02:09.521Z,3.53
2022-08-03T03:04:36.368Z,3.10
2022-08-03T03:07:03.682Z,3.28
2022-08-03T03:09:41.640Z,3.22
2022-08-03T03:12:10.282Z,3.30
2022-08-03T03:14:37.513Z,3.38
2022-08-03T03:17:04.666Z,3.30
2022-08-03T03:19:32.384Z,3.22
2022-08-03T03:22:00.293Z,3.30
2022-08-03T03:24:27.713Z,3.08
2022-08-03T03:26:54.455Z,3.10
2022-08-03T03:29:21.433Z,2.97
2022-08-03T03:31:48.042Z,3.13
2022-08-03T03:34:14.770Z,3.42
2022-08-03T03:36:41.406Z,3.50
2022-08-03T03:39:15.809Z,3.40
2022-08-03T03:41:43.292Z,3.15
2022-08-03T03:44:09.714Z,3.38
2022-08-03T03:49:02.584Z,3.75
2022-08-03T03:51:28.974Z,3.33
2022-08-03T03:56:21.687Z,3.67
2022-08-03T04:01:14.593Z,2.97
2022-08-03T04:03:41.086Z,3.85
2022-08-03T04:09:18.716Z,3.80
2022-08-03T04:11:47.924Z,3.28
2022-08-03T04:14:25.664Z,3.67
2022-08-03T04:16:54.835Z,3.10
2022-08-03T04:19:26.861Z,3.40
2022-08-03T04:21:56.951Z,3.17
2022-08-03T04:24:26.477Z,3.08
2022-08-03T04:26:53.635Z,3.80
2022-08-03T04:29:20.809Z,4.00
2022-08-03T04:31:48.411Z,3.53
2022-08-03T04:34:15.219Z,3.42
2022-08-03T04:36:47.586Z,3.40
2022-08-03T04:39:16.193Z,3.63
2022-08-03T04:42:07.329Z,3.50
2022-08-03T04:44:30.397Z,3.45
2022-08-03T04:46:57.860Z,3.70
2022-08-03T04:49:24.468Z,4.05
2022-08-03T04:51:51.059Z,3.33
2022-08-03T04:54:17.458Z,3.88
2022-08-03T04:59:10.693Z,4.00
2022-08-03T05:01:37.323Z,4.05
2022-08-03T05:04:04.009Z,3.92
2022-08-03T05:06:30.413Z,3.70
2022-08-03T05:11:23.088Z,3.58
2022-08-03T05:16:15.920Z,4.13
2022-08-03T05:21:14.064Z,3.53
2022-08-03T05:23:41.380Z,4.50
2022-08-03T05:26:07.797Z,3.78
2022-08-03T05:31:00.466Z,4.10
2022-08-03T05:35:56.236Z,3.80
2022-08-03T05:41:22.000Z,4.35
2022-08-03T05:43:46.745Z,4.28
2022-08-03T05:46:13.381Z,3.80
2022-08-03T05:48:39.947Z,3.60
2022-08-03T05:51:07.661Z,3.70
2022-08-03T05:53:34.173Z,4.35
2022-08-03T05:56:03.597Z,3.92
2022-08-03T05:58:41.635Z,4.05
2022-08-03T06:01:08.042Z,3.03
2022-08-03T06:03:36.959Z,3.03
2022-08-03T06:08:29.613Z,3.55
2022-08-03T06:10:58.170Z,3.92
2022-08-03T06:13:24.748Z,3.85
2022-08-03T06:15:51.228Z,3.72
2022-08-03T06:18:17.826Z,3.20
2022-08-03T06:20:44.189Z,3.58
2022-08-03T06:23:16.284Z,3.75
2022-08-03T06:25:44.782Z,3.28
2022-08-03T06:28:35.149Z,3.10
2022-08-03T06:30:58.937Z,3.35
2022-08-03T06:33:26.439Z,3.42
2022-08-03T06:36:12.776Z,3.60
2022-08-03T06:38:39.179Z,3.50
2022-08-03T06:41:05.515Z,3.10
2022-08-03T06:43:35.886Z,3.65
2022-08-03T06:46:02.432Z,3.20
2022-08-03T06:48:28.914Z,3.08
2022-08-03T06:50:55.327Z,3.17
2022-08-03T06:53:22.381Z,3.03
2022-08-03T06:55:53.853Z,3.33
2022-08-03T06:58:20.998Z,3.00
2022-08-03T07:00:47.605Z,3.10
2022-08-03T07:03:15.152Z,3.30
2022-08-03T07:05:42.266Z,4.38
2022-08-03T07:08:08.675Z,3.70
2022-08-03T07:10:35.093Z,3.00
2022-08-03T07:13:01.445Z,2.95
2022-08-03T07:15:55.768Z,3.30
2022-08-03T07:18:14.357Z,3.10
2022-08-03T07:20:41.286Z,3.20
2022-08-03T07:23:07.749Z,3.35
2022-08-03T07:25:34.127Z,3.72
2022-08-03T07:28:00.487Z,3.00
2022-08-03T07:30:26.955Z,3.38
2022-08-03T07:32:53.391Z,3.47
2022-08-03T07:35:24.637Z,3.33
2022-08-03T07:37:54.628Z,3.25
2022-08-03T07:40:21.987Z,2.90
2022-08-03T07:42:48.512Z,3.22
2022-08-03T07:45:19.651Z,3.00
2022-08-03T07:47:53.077Z,3.40
2022-08-03T07:50:20.191Z,2.75
2022-08-03T07:52:53.513Z,3.17
2022-08-03T07:55:20.915Z,2.80
2022-08-03T07:57:48.145Z,2.92
2022-08-03T08:00:21.155Z,3.33
2022-08-03T08:02:47.677Z,2.90
2022-08-03T08:05:14.089Z,3.10
2022-08-03T08:07:40.507Z,3.13
2022-08-03T08:10:07.717Z,2.97
2022-08-03T08:12:34.107Z,2.92
2022-08-03T08:15:00.563Z,3.13
2022-08-03T08:17:27.298Z,3.42
2022-08-03T08:19:53.792Z,2.65
2022-08-03T08:22:29.895Z,2.40
2022-08-03T08:24:57.829Z,3.22
2022-08-03T08:27:24.239Z,3.10
2022-08-03T08:29:55.162Z,2.80
2022-08-03T08:32:23.910Z,3.08
2022-08-03T08:34:50.299Z,2.80
2022-08-03T08:37:16.682Z,2.88
2022-08-03T08:39:43.087Z,3.30
2022-08-03T08:42:12.108Z,3.05
2022-08-03T08:44:38.626Z,3.13
2022-08-03T08:47:05.535Z,3.03
2022-08-03T08:49:32.736Z,3.10
2022-08-03T08:52:00.915Z,2.88
2022-08-03T08:54:29.218Z,2.85
2022-08-03T08:56:57.104Z,3.25
2022-08-03T08:59:24.173Z,2.83
2022-08-03T09:01:51.473Z,2.85
2022-08-03T09:04:20.948Z,2.85
2022-08-03T09:07:04.686Z,3.13
2022-08-03T09:10:11.333Z,2.97
2022-08-03T09:12:40.930Z,2.97
2022-08-03T09:15:17.685Z,2.80
2022-08-03T09:17:48.848Z,2.63
2022-08-03T09:20:17.608Z,2.97
2022-08-03T09:22:56.206Z,3.00
2022-08-03T09:25:33.255Z,3.40
2022-08-03T09:28:08.752Z,2.85
2022-08-03T09:30:35.918Z,2.97
2022-08-03T09:33:03.896Z,3.03
2022-08-03T09:35:53.051Z,2.33
2022-08-03T09:38:24.295Z,3.00
2022-08-03T09:40:51.579Z,2.67
2022-08-03T09:43:20.656Z,3.75
2022-08-03T09:45:47.191Z,2.92
2022-08-03T09:48:20.090Z,2.85
2022-08-03T09:50:57.026Z,2.78
2022-08-03T09:53:42.616Z,2.25
2022-08-03T09:56:37.292Z,2.33
2022-08-03T09:59:04.244Z,3.15
2022-08-03T10:01:35.086Z,2.53
2022-08-03T10:04:04.450Z,2.90
2022-08-03T10:06:31.277Z,2.85
2022-08-03T10:09:08.207Z,2.88
2022-08-03T10:11:41.735Z,3.22
2022-08-03T10:14:20.955Z,2.85
2022-08-03T10:16:48.182Z,2.50
2022-08-03T10:19:15.656Z,2.85
2022-08-03T10:21:46.453Z,2.72
2022-08-03T10:24:13.905Z,3.05
2022-08-03T10:26:50.083Z,2.63
2022-08-03T10:29:22.569Z,3.33
2022-08-03T10:31:54.437Z,2.72
2022-08-03T10:34:25.771Z,2.60
2022-08-03T10:36:53.638Z,2.88
2022-08-03T10:39:22.275Z,2.70
2022-08-03T10:41:49.652Z,2.85
2022-08-03T10:44:20.609Z,2.38
2022-08-03T10:46:48.628Z,2.53
2022-08-03T10:49:16.082Z,2.65
2022-08-03T10:51:46.443Z,2.60
2022-08-03T10:55:07.693Z,2.28
2022-08-03T10:57:48.851Z,2.13
2022-08-03T11:00:23.612Z,2.10
2022-08-03T11:03:04.027Z,2.60
2022-08-03T11:05:31.342Z,2.47
2022-08-03T11:08:17.734Z,2.10
2022-08-03T11:10:44.201Z,2.30
2022-08-03T11:13:10.992Z,2.03
2022-08-03T11:15:39.660Z,2.40
2022-08-03T11:18:11.257Z,2.22
2022-08-03T11:20:45.804Z,2.50
2022-08-03T11:23:12.893Z,2.38
2022-08-03T11:25:58.264Z,2.60
2022-08-03T11:28:25.227Z,2.28
2022-08-03T11:30:51.867Z,2.22
2022-08-03T11:33:30.947Z,2.33
2022-08-03T11:36:01.855Z,2.50
2022-08-03T11:38:28.224Z,2.25
2022-08-03T11:40:54.683Z,2.13
2022-08-03T11:43:31.454Z,1.70
2022-08-03T11:45:59.487Z,2.13
2022-08-03T11:48:34.426Z,2.20
2022-08-03T11:51:01.173Z,2.15
2022-08-03T11:53:28.710Z,2.33
2022-08-03T11:55:58.299Z,2.22
2022-08-03T11:59:01.959Z,2.50
2022-08-03T12:01:12.433Z,2.28
2022-08-03T12:03:38.913Z,2.10
2022-08-03T12:06:09.312Z,2.17
2022-08-03T12:08:35.692Z,2.15
2022-08-03T12:11:04.477Z,2.40
2022-08-03T12:14:44.867Z,2.00
2022-08-03T12:16:28.561Z,1.95
2022-08-03T12:18:55.756Z,2.50
2022-08-03T12:21:24.650Z,2.22
2022-08-03T12:23:51.628Z,2.30
2022-08-03T12:26:17.978Z,2.08
2022-08-03T12:28:49.927Z,1.83
2022-08-03T12:31:16.922Z,2.30
2022-08-03T12:33:55.489Z,2.00
2022-08-03T12:36:21.916Z,2.03
2022-08-03T12:38:55.008Z,2.05
2022-08-03T12:41:27.012Z,1.88
2022-08-03T12:43:54.985Z,1.77
2022-08-03T12:46:21.356Z,1.77
2022-08-03T12:49:06.782Z,1.92
2022-08-03T12:51:34.819Z,2.20
2022-08-03T12:54:01.548Z,1.80
2022-08-03T12:56:28.124Z,1.88
2022-08-03T12:58:54.503Z,2.33
2022-08-03T13:01:24.181Z,2.20
2022-08-03T13:03:53.659Z,1.95
2022-08-03T13:06:22.026Z,2.28
2022-08-03T13:08:48.510Z,2.40
2022-08-03T13:11:21.782Z,1.98
2022-08-03T13:13:48.663Z,1.90
2022-08-03T13:16:19.165Z,2.50
2022-08-03T13:18:49.707Z,2.00
2022-08-03T13:21:16.691Z,2.03
2022-08-03T13:23:43.478Z,1.95
2022-08-03T13:26:10.344Z,1.90
2022-08-03T13:28:36.725Z,1.60
2022-08-03T13:31:03.191Z,2.20
2022-08-03T13:33:29.708Z,2.20
2022-08-03T13:35:56.304Z,2.30
2022-08-03T13:38:27.150Z,2.30
2022-08-03T13:40:53.826Z,1.95
2022-08-03T13:43:20.758Z,2.00
2022-08-03T13:45:52.357Z,2.40
2022-08-03T13:48:36.813Z,2.53
2022-08-03T13:51:11.952Z,2.40
2022-08-03T13:53:49.100Z,2.03
2022-08-03T13:56:15.444Z,2.25
2022-08-03T13:58:41.794Z,2.50
2022-08-03T14:01:08.299Z,2.40
2022-08-03T14:03:34.699Z,2.40
2022-08-03T14:06:01.018Z,2.50
2022-08-03T14:08:27.382Z,2.60
2022-08-03T14:10:53.788Z,2.20
2022-08-03T14:13:20.103Z,2.20
2022-08-03T14:15:49.784Z,2.05
2022-08-03T14:18:28.445Z,2.08
2022-08-03T14:20:58.751Z,1.92
2022-08-03T14:23:27.171Z,2.08
2022-08-03T14:25:53.796Z,2.10
2022-08-03T14:28:21.219Z,1.98
2022-08-03T14:30:48.459Z,1.83
2022-08-03T14:33:20.923Z,2.10
2022-08-03T14:35:47.512Z,1.88
2022-08-03T14:38:14.035Z,1.98
2022-08-03T14:40:40.628Z,1.63
2022-08-03T14:43:07.054Z,1.88
2022-08-03T14:45:34.281Z,1.85
2022-08-03T14:50:28.836Z,1.75
2022-08-03T14:50:51.635Z,2.17
2022-08-03T14:53:18.932Z,2.00
2022-08-03T14:55:49.814Z,2.35
2022-08-03T14:58:19.727Z,2.28
2022-08-03T15:00:47.899Z,2.00
2022-08-03T15:03:16.769Z,2.03
2022-08-03T15:05:43.797Z,2.10
2022-08-03T15:08:10.175Z,1.95
2022-08-03T15:10:40.614Z,1.92
2022-08-03T15:13:11.344Z,1.85
2022-08-03T15:15:37.736Z,1.85
2022-08-03T15:18:04.198Z,1.70
2022-08-03T15:20:43.947Z,1.98
2022-08-03T15:23:11.883Z,1.70
2022-08-03T15:26:28.086Z,1.65
2022-08-03T15:28:25.564Z,1.95
2022-08-03T15:30:52.607Z,1.55
2022-08-03T15:33:19.054Z,2.03
2022-08-03T15:35:47.340Z,1.70
2022-08-03T15:38:13.775Z,1.73
2022-08-03T15:40:40.138Z,1.70
2022-08-03T15:43:06.701Z,1.70
2022-08-03T15:45:35.419Z,1.90
2022-08-03T15:48:04.453Z,1.60
2022-08-03T15:50:30.878Z,1.80
2022-08-03T15:52:57.279Z,1.80
2022-08-03T15:55:23.942Z,2.00
2022-08-03T15:59:09.545Z,2.00
2022-08-03T16:00:36.690Z,1.80
2022-08-03T16:03:03.403Z,1.77
2022-08-03T16:05:29.804Z,1.52
2022-08-03T16:08:03.052Z,2.00
2022-08-03T16:10:30.635Z,2.00
2022-08-03T16:12:58.807Z,2.15
2022-08-03T16:15:25.220Z,2.10
2022-08-03T16:17:51.698Z,1.77
2022-08-03T16:20:31.191Z,1.75
2022-08-03T16:23:01.627Z,2.05
2022-08-03T16:25:37.894Z,1.83
2022-08-03T16:28:07.896Z,1.88
2022-08-03T16:30:39.733Z,1.88
2022-08-03T16:33:06.230Z,1.98
2022-08-03T16:35:35.721Z,2.00
2022-08-03T16:38:06.469Z,2.15
2022-08-03T16:40:38.136Z,1.70
2022-08-03T16:43:17.952Z,1.90
2022-08-03T16:45:45.952Z,1.65
2022-08-03T16:48:15.357Z,1.70
2022-08-03T16:50:41.860Z,1.80
2022-08-03T16:53:17.053Z,2.10
2022-08-03T16:55:53.371Z,1.92
2022-08-03T16:58:34.924Z,1.92
2022-08-03T17:01:21.636Z,1.60
2022-08-03T17:04:01.296Z,1.77
2022-08-03T17:06:33.750Z,1.90
2022-08-03T17:09:08.732Z,1.98
2022-08-03T17:11:37.289Z,2.10
2022-08-03T17:14:09.201Z,1.85
2022-08-03T17:16:37.477Z,2.10
2022-08-03T17:19:08.768Z,1.60
2022-08-03T17:21:39.275Z,2.10
2022-08-03T17:24:18.678Z,1.55
2022-08-03T17:26:50.086Z,1.80
2022-08-03T17:29:23.070Z,2.03
2022-08-03T17:31:52.306Z,1.95
2022-08-03T17:34:20.214Z,1.88
2022-08-03T17:37:03.877Z,2.05
2022-08-03T17:39:55.669Z,1.70
2022-08-03T17:42:31.045Z,2.13
2022-08-03T17:44:58.758Z,1.90
2022-08-03T17:47:42.321Z,1.58
2022-08-03T17:50:25.154Z,1.70
2022-08-03T17:52:59.173Z,1.88
2022-08-03T17:55:57.481Z,1.85
2022-08-03T17:58:23.349Z,2.10
2022-08-03T18:01:59.248Z,2.05
2022-08-03T18:04:02.876Z,1.52
2022-08-03T18:06:38.467Z,1.50
2022-08-03T18:10:04.460Z,1.70
2022-08-03T18:12:13.979Z,1.70
2022-08-03T18:14:57.781Z,1.50
2022-08-03T18:17:55.108Z,2.03
2022-08-03T18:20:32.386Z,1.95
2022-08-03T18:23:04.930Z,2.22
2022-08-03T18:25:49.063Z,2.00
2022-08-03T18:28:23.303Z,1.92
2022-08-03T18:30:54.699Z,1.85
2022-08-03T18:34:19.775Z,1.83
2022-08-03T18:36:30.890Z,1.63
2022-08-03T18:38:59.349Z,1.52
2022-08-03T18:41:32.460Z,1.77
2022-08-03T18:44:08.469Z,1.65
2022-08-03T18:47:15.880Z,1.58
2022-08-03T18:49:57.835Z,1.70
2022-08-03T18:52:46.059Z,1.60
2022-08-03T18:55:35.739Z,1.70
2022-08-03T18:58:15.753Z,1.48
2022-08-03T19:01:03.955Z,1.50
2022-08-03T19:03:41.419Z,1.50
2022-08-03T19:06:14.568Z,1.60
2022-08-03T19:11:16.684Z,2.10
2022-08-03T19:13:51.308Z,1.60
2022-08-03T19:16:21.683Z,1.65
2022-08-03T19:18:49.531Z,1.92
2022-08-03T19:21:19.191Z,1.73
2022-08-03T19:23:46.840Z,1.73
2022-08-03T19:26:30.963Z,1.70
2022-08-03T19:28:58.231Z,1.88
2022-08-03T19:31:24.911Z,1.80
2022-08-03T19:33:58.692Z,1.92
2022-08-03T19:36:26.366Z,1.63
2022-08-03T19:38:54.647Z,1.83
2022-08-03T19:41:24.062Z,1.88
2022-08-03T19:44:04.399Z,1.85
2022-08-03T19:46:33.886Z,1.80
2022-08-03T19:49:02.756Z,1.67
2022-08-03T19:51:59.387Z,1.50
2022-08-03T19:54:29.838Z,1.60
2022-08-03T19:57:00.066Z,1.70
2022-08-03T19:59:29.124Z,1.73
2022-08-03T20:01:55.490Z,1.60
2022-08-03T20:04:21.863Z,1.70
2022-08-03T20:06:49.597Z,1.58
2022-08-03T20:09:16.556Z,1.63
2022-08-03T20:11:43.676Z,1.90
2022-08-03T20:14:11.804Z,1.50
2022-08-03T20:16:47.470Z,1.50
2022-08-03T20:19:14.634Z,1.95
2022-08-03T20:21:44.355Z,1.52
2022-08-03T20:24:23.804Z,1.90
2022-08-03T20:26:53.488Z,2.50
2022-08-03T20:29:31.487Z,1.98
2022-08-03T20:32:11.283Z,2.75
2022-08-03T20:34:38.269Z,2.95
2022-08-03T20:37:05.010Z,4.97
2022-08-03T20:39:35.882Z,4.65
2022-08-03T20:42:03.587Z,11.18
2022-08-03T20:44:30.927Z,8.25
2022-08-03T20:47:00.935Z,5.53
2022-08-03T20:52:18.769Z,2.72
2022-08-03T20:54:47.978Z,2.40
2022-08-03T20:57:15.099Z,2.30
2022-08-03T20:59:50.519Z,2.50
2022-08-03T21:02:30.213Z,2.80
2022-08-03T21:04:58.007Z,5.03
2022-08-03T21:08:04.509Z,3.78
2022-08-03T21:10:15.375Z,4.95
2022-08-03T21:12:50.148Z,4.15
2022-08-03T21:13:07.508Z,3.28
2022-08-03T21:16:11.322Z,4.57
2022-08-03T21:18:05.709Z,4.18
2022-08-03T21:20:34.398Z,5.75
2022-08-03T21:23:01.274Z,3.72
2022-08-03T21:25:31.575Z,3.40
2022-08-03T21:27:58.685Z,3.03
2022-08-03T21:30:26.454Z,3.35
2022-08-03T21:32:53.537Z,4.30
2022-08-03T21:35:20.455Z,3.35
2022-08-03T21:37:49.784Z,3.00
2022-08-03T21:40:16.610Z,3.72
2022-08-03T21:42:44.029Z,3.38
2022-08-03T21:45:16.909Z,2.67
2022-08-03T21:47:43.950Z,2.85
2022-08-03T21:50:12.515Z,3.75
2022-08-03T21:52:43.632Z,3.08
2022-08-03T21:55:20.527Z,2.50
2022-08-03T21:57:50.949Z,3.15
2022-08-03T22:00:20.522Z,3.33
2022-08-03T22:02:57.328Z,3.38
2022-08-03T22:05:42.412Z,2.50
2022-08-03T22:08:11.199Z,3.15
2022-08-03T22:10:37.791Z,2.38
2022-08-03T22:13:04.229Z,2.85
2022-08-03T22:15:30.658Z,2.75
2022-08-03T22:17:57.521Z,2.90
2022-08-03T22:20:24.200Z,2.65
2022-08-03T22:22:56.123Z,2.67
2022-08-03T22:25:27.113Z,2.90
2022-08-03T22:27:53.923Z,2.72
2022-08-03T22:30:20.365Z,2.58
2022-08-03T22:32:49.216Z,2.80
2022-08-03T22:35:19.503Z,2.90
2022-08-03T22:37:48.362Z,3.65
2022-08-03T22:40:15.343Z,3.50
2022-08-03T22:42:44.319Z,2.92
2022-08-03T22:45:10.925Z,2.80
2022-08-03T22:47:57.711Z,3.10
2022-08-03T22:50:31.968Z,2.53
2022-08-03T22:53:00.093Z,2.60
2022-08-03T22:55:26.831Z,2.80
2022-08-03T22:57:55.911Z,2.90
2022-08-03T23:00:23.199Z,2.95
2022-08-03T23:02:50.881Z,2.95
2022-08-03T23:06:00.840Z,2.95
2022-08-03T23:08:08.573Z,3.05
2022-08-03T23:10:35.973Z,2.70
2022-08-03T23:13:02.629Z,2.97
2022-08-03T23:15:29.815Z,3.03
2022-08-03T23:17:58.582Z,3.20
2022-08-03T23:20:26.711Z,3.38
2022-08-03T23:22:54.629Z,3.50
2022-08-03T23:25:21.936Z,3.70
2022-08-03T23:27:49.167Z,3.42
2022-08-03T23:30:32.805Z,3.20
2022-08-03T23:33:00.437Z,3.95
2022-08-03T23:36:28.328Z,3.70
2022-08-03T23:38:35.007Z,3.55
2022-08-03T23:41:02.567Z,3.60
2022-08-03T23:43:45.059Z,3.50
2022-08-03T23:46:19.703Z,3.15
2022-08-03T23:48:48.647Z,3.00
2022-08-03T23:51:31.425Z,3.40
2022-08-03T23:54:09.131Z,3.15
2022-08-03T23:56:43.464Z,2.95
2022-08-03T23:59:29.752Z,2.75
